Airfield :
LOGIN :

Register | Disclaimer

   EN    FR    IT 

 










Legend :    VFR   Marginal VFR   IFR   Intensive IFR   Very Intensive IFR
Visi :
Ceiling :
>= 8 km
>= 3000ft
5 to 8 km
1000 to 3000 ft
1500m to 5 km
500 to 1000 ft
800 to 1500m
200 to 500 ft
< 800m
< 200 ft
Symbols :   Thunderstorms  Fog  Heavy snow  Heavy precipitations  Wind > 20 kt
SIGMETs :     Misc.  Thunderstorms  Icing  Turbulence  Mountain Waves  Volcanic Ashes






- Airport Elevation : 74 ft
- IATA code : LRH


LFBH - La Rochelle Ile de Ré

CURRENT METAR :
  • 121300Z AUTO 33008KT CAVOK 12/07 Q1009 TEMPO 32015G25KT 4000 -SHRA BKN025TCU

EXPIRED METARs :
  • 121230Z AUTO 33011KT 9999 FEW027 SCT036 BKN052 12/08 Q1009 TEMPO 32015G25KT 4000 -SHRA BKN025TCU
  • 121200Z AUTO 30006KT 9999 FEW049 12/08 Q1009 TEMPO 32015G25KT 4000 -SHRA BKN025TCU
  • 121130Z AUTO 34006KT 9999 FEW026 SCT043 BKN050 11/08 Q1010 TEMPO 4000 -SHRA BKN025TCU
  • 121100Z AUTO 33005KT 300V360 9999 SCT031 BKN042 BKN060 12/07 Q1010 TEMPO 4000 -SHRA BKN025TCU
  • 121030Z AUTO 32004KT 9999 FEW033 12/06 Q1010 TEMPO 4000 -SHRA BKN025TCU

TAF TAF LFBH
Valid from the 12 at 12:00 until the 13 at 12:00 UTC


121100Z 1212/1312 30010KT 9999 SCT040
TEMPO 1212/1221 32015G25KT 4000 -SHRA BKN025TCU
BECMG 1222/1224 VRB02KT
BECMG 1310/1312 24010KT
ATIS : +33 5 46 00 13 92



MET'MAP, your aeronautical weather chart ! - Copyright ORBIFLY December 2007 - Disclaimer

ORBIFLY MET'MAP TEAM :

Programming & Development : Alexandra Zaïnal
Concept & Development : Baudouin d'Aumeries
Co-Development & Prog : Marc-Olivier Méhu
Technical & hardware support : Manuel Goepfert

Contact : metmap@orbifly.com




SOURCES & CREDITS :

   NOAA